sensor_id;sensor_type;location;lat;lon;timestamp;pressure;altitude;pressure_sealevel;temperature;humidity
9784;BME280;4931;44.874;-1.092;2023-07-20T00:01:05;101678.66;;;17.16;100.00
9784;BME280;4931;44.874;-1.092;2023-07-20T00:03:31;101697.19;;;17.34;100.00
9784;BME280;4931;44.874;-1.092;2023-07-20T00:05:56;101689.13;;;17.19;100.00
9784;BME280;4931;44.874;-1.092;2023-07-20T00:08:22;101687.66;;;17.07;100.00
9784;BME280;4931;44.874;-1.092;2023-07-20T00:10:48;101702.88;;;17.10;100.00
9784;BME280;4931;44.874;-1.092;2023-07-20T00:13:13;101691.31;;;17.03;100.00
9784;BME280;4931;44.874;-1.092;2023-07-20T00:15:41;101698.28;;;17.00;100.00
9784;BME280;4931;44.874;-1.092;2023-07-20T00:18:06;101691.56;;;17.06;100.00
9784;BME280;4931;44.874;-1.092;2023-07-20T00:20:32;101693.19;;;17.07;100.00
9784;BME280;4931;44.874;-1.092;2023-07-20T00:22:58;101697.91;;;17.07;100.00
9784;BME280;4931;44.874;-1.092;2023-07-20T00:25:24;101696.63;;;16.99;100.00
9784;BME280;4931;44.874;-1.092;2023-07-20T00:27:50;101685.34;;;16.96;100.00
9784;BME280;4931;44.874;-1.092;2023-07-20T00:30:16;101693.44;;;16.92;100.00
9784;BME280;4931;44.874;-1.092;2023-07-20T00:32:42;101686.28;;;16.86;100.00
9784;BME280;4931;44.874;-1.092;2023-07-20T00:35:08;101689.00;;;16.91;100.00
9784;BME280;4931;44.874;-1.092;2023-07-20T00:37:34;101694.78;;;16.95;100.00
9784;BME280;4931;44.874;-1.092;2023-07-20T00:40:00;101665.47;;;16.88;100.00
9784;BME280;4931;44.874;-1.092;2023-07-20T00:42:25;101676.31;;;16.85;100.00
9784;BME280;4931;44.874;-1.092;2023-07-20T00:44:51;101668.00;;;16.85;100.00
9784;BME280;4931;44.874;-1.092;2023-07-20T00:47:17;101661.88;;;16.88;100.00
9784;BME280;4931;44.874;-1.092;2023-07-20T00:49:43;101677.22;;;16.80;100.00
9784;BME280;4931;44.874;-1.092;2023-07-20T00:52:10;101669.13;;;16.65;100.00
9784;BME280;4931;44.874;-1.092;2023-07-20T00:54:36;101682.03;;;16.74;100.00
9784;BME280;4931;44.874;-1.092;2023-07-20T00:57:03;101677.00;;;16.76;100.00
9784;BME280;4931;44.874;-1.092;2023-07-20T00:59:29;101673.66;;;16.80;100.00
9784;BME280;4931;44.874;-1.092;2023-07-20T01:01:55;101668.19;;;16.74;100.00
9784;BME280;4931;44.874;-1.092;2023-07-20T01:04:20;101659.41;;;16.67;100.00
9784;BME280;4931;44.874;-1.092;2023-07-20T01:06:53;101664.03;;;16.53;100.00
9784;BME280;4931;44.874;-1.092;2023-07-20T01:09:35;101648.38;;;16.24;100.00
9784;BME280;4931;44.874;-1.092;2023-07-20T01:14:34;101643.13;;;16.22;100.00
9784;BME280;4931;44.874;-1.092;2023-07-20T01:17:00;101644.50;;;16.25;100.00
9784;BME280;4931;44.874;-1.092;2023-07-20T01:19:25;101625.78;;;16.17;100.00
9784;BME280;4931;44.874;-1.092;2023-07-20T01:21:59;101634.16;;;16.12;100.00
9784;BME280;4931;44.874;-1.092;2023-07-20T01:30:55;101615.56;;;15.93;100.00
9784;BME280;4931;44.874;-1.092;2023-07-20T01:33:21;101613.91;;;15.92;100.00
9784;BME280;4931;44.874;-1.092;2023-07-20T01:35:54;101616.94;;;16.15;100.00
9784;BME280;4931;44.874;-1.092;2023-07-20T01:38:23;101617.25;;;16.32;100.00
9784;BME280;4931;44.874;-1.092;2023-07-20T01:40:49;101615.09;;;16.29;100.00
9784;BME280;4931;44.874;-1.092;2023-07-20T01:43:16;101617.41;;;16.22;100.00
9784;BME280;4931;44.874;-1.092;2023-07-20T01:45:41;101612.31;;;16.29;100.00
9784;BME280;4931;44.874;-1.092;2023-07-20T01:48:07;101620.31;;;16.31;100.00
9784;BME280;4931;44.874;-1.092;2023-07-20T01:50:32;101612.00;;;16.12;100.00
9784;BME280;4931;44.874;-1.092;2023-07-20T01:53:00;101606.34;;;16.22;100.00
9784;BME280;4931;44.874;-1.092;2023-07-20T01:55:26;101602.44;;;16.23;100.00
9784;BME280;4931;44.874;-1.092;2023-07-20T01:57:52;101602.81;;;16.35;100.00
9784;BME280;4931;44.874;-1.092;2023-07-20T02:00:18;101602.88;;;16.49;100.00
9784;BME280;4931;44.874;-1.092;2023-07-20T02:02:46;101598.78;;;16.47;100.00
9784;BME280;4931;44.874;-1.092;2023-07-20T02:05:12;101591.06;;;16.43;100.00
9784;BME280;4931;44.874;-1.092;2023-07-20T02:07:37;101592.03;;;16.53;100.00
9784;BME280;4931;44.874;-1.092;2023-07-20T02:10:03;101586.66;;;16.23;100.00
9784;BME280;4931;44.874;-1.092;2023-07-20T02:12:29;101579.72;;;16.26;100.00
9784;BME280;4931;44.874;-1.092;2023-07-20T02:14:54;101582.84;;;16.38;100.00
9784;BME280;4931;44.874;-1.092;2023-07-20T02:17:20;101579.34;;;16.33;100.00
9784;BME280;4931;44.874;-1.092;2023-07-20T02:19:45;101579.56;;;16.36;100.00
9784;BME280;4931;44.874;-1.092;2023-07-20T02:22:12;101569.59;;;16.35;100.00
9784;BME280;4931;44.874;-1.092;2023-07-20T02:24:37;101580.00;;;16.43;100.00
9784;BME280;4931;44.874;-1.092;2023-07-20T02:27:03;101584.13;;;16.46;100.00
9784;BME280;4931;44.874;-1.092;2023-07-20T02:29:29;101569.53;;;16.40;100.00
9784;BME280;4931;44.874;-1.092;2023-07-20T02:31:55;101577.75;;;16.46;100.00
9784;BME280;4931;44.874;-1.092;2023-07-20T02:34:20;101558.66;;;16.44;100.00
9784;BME280;4931;44.874;-1.092;2023-07-20T02:36:46;101562.19;;;16.50;100.00
9784;BME280;4931;44.874;-1.092;2023-07-20T02:39:11;101567.13;;;16.53;100.00
9784;BME280;4931;44.874;-1.092;2023-07-20T02:41:37;101576.38;;;16.62;100.00
9784;BME280;4931;44.874;-1.092;2023-07-20T02:44:02;101560.00;;;16.66;100.00
9784;BME280;4931;44.874;-1.092;2023-07-20T02:46:28;101553.09;;;16.63;100.00
9784;BME280;4931;44.874;-1.092;2023-07-20T02:48:55;101563.50;;;16.71;100.00
9784;BME280;4931;44.874;-1.092;2023-07-20T02:51:21;101557.22;;;16.66;100.00
9784;BME280;4931;44.874;-1.092;2023-07-20T02:53:46;101565.75;;;16.69;100.00
9784;BME280;4931;44.874;-1.092;2023-07-20T02:56:12;101570.41;;;16.55;100.00
9784;BME280;4931;44.874;-1.092;2023-07-20T02:58:41;101571.53;;;16.54;100.00
9784;BME280;4931;44.874;-1.092;2023-07-20T03:01:09;101570.56;;;16.45;100.00
9784;BME280;4931;44.874;-1.092;2023-07-20T03:03:36;101567.88;;;16.39;100.00
9784;BME280;4931;44.874;-1.092;2023-07-20T03:06:05;101565.72;;;16.36;100.00
9784;BME280;4931;44.874;-1.092;2023-07-20T03:08:30;101563.53;;;16.33;100.00
9784;BME280;4931;44.874;-1.092;2023-07-20T03:10:56;101560.25;;;16.31;100.00
9784;BME280;4931;44.874;-1.092;2023-07-20T03:13:21;101559.50;;;16.45;100.00
9784;BME280;4931;44.874;-1.092;2023-07-20T03:15:47;101556.41;;;16.46;100.00
9784;BME280;4931;44.874;-1.092;2023-07-20T03:18:13;101551.34;;;16.34;100.00
9784;BME280;4931;44.874;-1.092;2023-07-20T03:20:38;101568.69;;;16.40;100.00
9784;BME280;4931;44.874;-1.092;2023-07-20T03:23:04;101564.00;;;16.40;100.00
9784;BME280;4931;44.874;-1.092;2023-07-20T03:25:29;101570.94;;;16.57;100.00
9784;BME280;4931;44.874;-1.092;2023-07-20T03:27:55;101568.16;;;16.57;100.00
9784;BME280;4931;44.874;-1.092;2023-07-20T03:30:20;101553.97;;;16.45;100.00
9784;BME280;4931;44.874;-1.092;2023-07-20T03:32:46;101545.03;;;16.48;100.00
9784;BME280;4931;44.874;-1.092;2023-07-20T03:35:12;101550.72;;;16.56;100.00
9784;BME280;4931;44.874;-1.092;2023-07-20T03:37:38;101552.66;;;16.56;100.00
9784;BME280;4931;44.874;-1.092;2023-07-20T03:40:04;101554.63;;;16.55;100.00
9784;BME280;4931;44.874;-1.092;2023-07-20T03:42:30;101554.09;;;16.53;100.00
9784;BME280;4931;44.874;-1.092;2023-07-20T03:44:55;101561.56;;;16.53;100.00
9784;BME280;4931;44.874;-1.092;2023-07-20T03:47:21;101548.25;;;16.55;100.00
9784;BME280;4931;44.874;-1.092;2023-07-20T03:49:47;101553.97;;;16.45;100.00
9784;BME280;4931;44.874;-1.092;2023-07-20T03:52:12;101551.41;;;16.29;100.00
9784;BME280;4931;44.874;-1.092;2023-07-20T03:54:38;101546.56;;;16.21;100.00
9784;BME280;4931;44.874;-1.092;2023-07-20T03:57:04;101547.91;;;16.23;100.00
9784;BME280;4931;44.874;-1.092;2023-07-20T03:59:29;101552.59;;;16.23;100.00
9784;BME280;4931;44.874;-1.092;2023-07-20T04:01:55;101546.03;;;16.19;100.00
9784;BME280;4931;44.874;-1.092;2023-07-20T04:04:20;101545.34;;;16.08;100.00
9784;BME280;4931;44.874;-1.092;2023-07-20T04:06:46;101539.44;;;15.96;100.00
9784;BME280;4931;44.874;-1.092;2023-07-20T04:09:12;101545.03;;;15.90;100.00
9784;BME280;4931;44.874;-1.092;2023-07-20T04:11:38;101541.75;;;15.88;100.00
9784;BME280;4931;44.874;-1.092;2023-07-20T04:14:03;101543.69;;;15.88;100.00
9784;BME280;4931;44.874;-1.092;2023-07-20T04:16:29;101533.75;;;15.87;100.00
9784;BME280;4931;44.874;-1.092;2023-07-20T04:18:56;101537.25;;;15.92;100.00
9784;BME280;4931;44.874;-1.092;2023-07-20T04:21:22;101526.41;;;15.96;100.00
9784;BME280;4931;44.874;-1.092;2023-07-20T04:23:48;101523.72;;;15.91;100.00
9784;BME280;4931;44.874;-1.092;2023-07-20T04:26:13;101524.16;;;15.98;100.00
9784;BME280;4931;44.874;-1.092;2023-07-20T04:28:40;101506.59;;;15.89;100.00
9784;BME280;4931;44.874;-1.092;2023-07-20T04:31:12;101520.16;;;15.90;100.00
9784;BME280;4931;44.874;-1.092;2023-07-20T04:33:38;101523.78;;;15.86;100.00
9784;BME280;4931;44.874;-1.092;2023-07-20T04:36:03;101513.63;;;15.81;100.00
9784;BME280;4931;44.874;-1.092;2023-07-20T04:38:29;101514.16;;;15.78;100.00
9784;BME280;4931;44.874;-1.092;2023-07-20T04:40:55;101520.78;;;15.82;100.00
9784;BME280;4931;44.874;-1.092;2023-07-20T04:43:21;101498.56;;;15.68;100.00
9784;BME280;4931;44.874;-1.092;2023-07-20T04:45:46;101509.00;;;15.71;100.00
9784;BME280;4931;44.874;-1.092;2023-07-20T04:48:16;101517.25;;;15.76;100.00
9784;BME280;4931;44.874;-1.092;2023-07-20T04:50:43;101522.22;;;15.74;100.00
9784;BME280;4931;44.874;-1.092;2023-07-20T04:53:10;101508.72;;;15.73;100.00
9784;BME280;4931;44.874;-1.092;2023-07-20T04:55:38;101511.59;;;15.87;100.00
9784;BME280;4931;44.874;-1.092;2023-07-20T04:58:04;101510.78;;;16.05;100.00
9784;BME280;4931;44.874;-1.092;2023-07-20T05:00:31;101501.50;;;16.15;100.00
9784;BME280;4931;44.874;-1.092;2023-07-20T05:02:57;101521.66;;;16.21;100.00
9784;BME280;4931;44.874;-1.092;2023-07-20T05:05:33;101516.63;;;16.23;100.00
9784;BME280;4931;44.874;-1.092;2023-07-20T05:07:59;101492.09;;;16.16;100.00
9784;BME280;4931;44.874;-1.092;2023-07-20T05:10:25;101499.66;;;16.10;100.00
9784;BME280;4931;44.874;-1.092;2023-07-20T05:12:50;101509.53;;;16.17;100.00
9784;BME280;4931;44.874;-1.092;2023-07-20T05:15:15;101493.75;;;16.17;100.00
9784;BME280;4931;44.874;-1.092;2023-07-20T05:17:41;101497.25;;;16.23;100.00
9784;BME280;4931;44.874;-1.092;2023-07-20T05:20:07;101497.25;;;16.23;100.00
9784;BME280;4931;44.874;-1.092;2023-07-20T05:22:36;101490.91;;;16.22;100.00
9784;BME280;4931;44.874;-1.092;2023-07-20T05:25:08;101487.31;;;16.22;100.00
9784;BME280;4931;44.874;-1.092;2023-07-20T05:27:35;101491.50;;;16.19;100.00
9784;BME280;4931;44.874;-1.092;2023-07-20T05:30:01;101483.03;;;16.10;100.00
9784;BME280;4931;44.874;-1.092;2023-07-20T05:32:27;101493.13;;;16.20;100.00
9784;BME280;4931;44.874;-1.092;2023-07-20T05:34:53;101487.31;;;16.22;100.00
9784;BME280;4931;44.874;-1.092;2023-07-20T05:37:19;101489.69;;;16.29;100.00
9784;BME280;4931;44.874;-1.092;2023-07-20T05:39:45;101467.16;;;16.35;100.00
9784;BME280;4931;44.874;-1.092;2023-07-20T05:42:11;101487.75;;;16.62;100.00
9784;BME280;4931;44.874;-1.092;2023-07-20T05:44:36;101500.56;;;16.91;100.00
9784;BME280;4931;44.874;-1.092;2023-07-20T05:47:02;101496.91;;;17.09;100.00
9784;BME280;4931;44.874;-1.092;2023-07-20T05:49:30;101492.28;;;17.19;100.00
9784;BME280;4931;44.874;-1.092;2023-07-20T05:51:56;101486.06;;;17.27;100.00
9784;BME280;4931;44.874;-1.092;2023-07-20T05:54:23;101497.94;;;17.55;100.00
9784;BME280;4931;44.874;-1.092;2023-07-20T05:56:49;101503.88;;;17.76;100.00
9784;BME280;4931;44.874;-1.092;2023-07-20T05:59:15;101500.88;;;17.87;100.00
9784;BME280;4931;44.874;-1.092;2023-07-20T06:01:42;101491.44;;;17.88;100.00
9784;BME280;4931;44.874;-1.092;2023-07-20T06:04:08;101508.22;;;17.97;100.00
9784;BME280;4931;44.874;-1.092;2023-07-20T06:06:33;101511.03;;;18.05;100.00
9784;BME280;4931;44.874;-1.092;2023-07-20T06:09:00;101505.03;;;18.26;100.00
9784;BME280;4931;44.874;-1.092;2023-07-20T06:11:29;101511.28;;;18.54;100.00
9784;BME280;4931;44.874;-1.092;2023-07-20T06:13:56;101493.16;;;18.57;100.00
9784;BME280;4931;44.874;-1.092;2023-07-20T06:16:21;101492.00;;;18.81;100.00
9784;BME280;4931;44.874;-1.092;2023-07-20T06:18:47;101494.03;;;18.89;100.00
9784;BME280;4931;44.874;-1.092;2023-07-20T06:21:12;101498.69;;;19.02;100.00
9784;BME280;4931;44.874;-1.092;2023-07-20T06:23:38;101495.19;;;19.28;100.00
9784;BME280;4931;44.874;-1.092;2023-07-20T06:26:06;101485.59;;;19.43;100.00
9784;BME280;4931;44.874;-1.092;2023-07-20T06:28:31;101496.75;;;19.52;100.00
9784;BME280;4931;44.874;-1.092;2023-07-20T06:31:01;101497.88;;;19.51;100.00
9784;BME280;4931;44.874;-1.092;2023-07-20T06:33:27;101494.97;;;19.56;100.00
9784;BME280;4931;44.874;-1.092;2023-07-20T06:35:52;101503.81;;;19.58;100.00
9784;BME280;4931;44.874;-1.092;2023-07-20T06:38:18;101498.47;;;19.30;100.00
9784;BME280;4931;44.874;-1.092;2023-07-20T06:40:46;101509.38;;;19.58;100.00
9784;BME280;4931;44.874;-1.092;2023-07-20T06:43:12;101505.84;;;19.84;100.00
9784;BME280;4931;44.874;-1.092;2023-07-20T06:45:37;101509.94;;;20.04;100.00
9784;BME280;4931;44.874;-1.092;2023-07-20T06:48:03;101509.16;;;20.03;100.00
9784;BME280;4931;44.874;-1.092;2023-07-20T06:50:29;101512.09;;;20.33;100.00
9784;BME280;4931;44.874;-1.092;2023-07-20T06:52:55;101511.28;;;20.24;100.00
9784;BME280;4931;44.874;-1.092;2023-07-20T06:55:20;101511.44;;;20.36;100.00
9784;BME280;4931;44.874;-1.092;2023-07-20T06:57:46;101505.84;;;20.01;100.00
9784;BME280;4931;44.874;-1.092;2023-07-20T07:00:12;101508.31;;;20.47;100.00
9784;BME280;4931;44.874;-1.092;2023-07-20T07:02:38;101509.47;;;20.46;100.00
9784;BME280;4931;44.874;-1.092;2023-07-20T07:05:04;101509.38;;;21.07;100.00
9784;BME280;4931;44.874;-1.092;2023-07-20T07:07:29;101504.06;;;21.23;100.00
9784;BME280;4931;44.874;-1.092;2023-07-20T07:09:55;101508.78;;;20.66;100.00
9784;BME280;4931;44.874;-1.092;2023-07-20T07:12:20;101498.56;;;20.97;100.00
9784;BME280;4931;44.874;-1.092;2023-07-20T07:14:46;101503.06;;;21.28;100.00
9784;BME280;4931;44.874;-1.092;2023-07-20T07:17:11;101503.38;;;21.26;100.00
9784;BME280;4931;44.874;-1.092;2023-07-20T07:19:37;101496.56;;;21.75;100.00
9784;BME280;4931;44.874;-1.092;2023-07-20T07:22:04;101498.78;;;21.90;100.00
9784;BME280;4931;44.874;-1.092;2023-07-20T07:24:29;101490.19;;;21.95;100.00
9784;BME280;4931;44.874;-1.092;2023-07-20T07:26:59;101487.34;;;21.83;100.00
9784;BME280;4931;44.874;-1.092;2023-07-20T07:29:25;101498.66;;;22.08;100.00
9784;BME280;4931;44.874;-1.092;2023-07-20T07:31:51;101505.25;;;22.03;100.00
9784;BME280;4931;44.874;-1.092;2023-07-20T07:34:16;101497.78;;;21.95;100.00
9784;BME280;4931;44.874;-1.092;2023-07-20T07:36:42;101491.13;;;22.20;100.00
9784;BME280;4931;44.874;-1.092;2023-07-20T07:39:08;101489.53;;;22.41;100.00
9784;BME280;4931;44.874;-1.092;2023-07-20T07:41:34;101486.84;;;22.23;100.00
9784;BME280;4931;44.874;-1.092;2023-07-20T07:44:00;101483.97;;;22.32;100.00
9784;BME280;4931;44.874;-1.092;2023-07-20T07:46:25;101479.03;;;22.37;100.00
9784;BME280;4931;44.874;-1.092;2023-07-20T07:48:51;101477.56;;;22.52;100.00
9784;BME280;4931;44.874;-1.092;2023-07-20T07:51:16;101475.09;;;22.51;100.00
9784;BME280;4931;44.874;-1.092;2023-07-20T07:53:42;101473.06;;;22.73;100.00
9784;BME280;4931;44.874;-1.092;2023-07-20T07:56:09;101485.56;;;22.75;100.00
9784;BME280;4931;44.874;-1.092;2023-07-20T07:58:34;101471.69;;;22.79;100.00
9784;BME280;4931;44.874;-1.092;2023-07-20T08:01:00;101467.63;;;22.76;100.00
9784;BME280;4931;44.874;-1.092;2023-07-20T08:03:26;101473.81;;;22.94;100.00
9784;BME280;4931;44.874;-1.092;2023-07-20T08:05:56;101474.31;;;23.33;100.00
9784;BME280;4931;44.874;-1.092;2023-07-20T08:08:22;101458.22;;;23.05;100.00
9784;BME280;4931;44.874;-1.092;2023-07-20T08:10:48;101463.84;;;23.18;100.00
9784;BME280;4931;44.874;-1.092;2023-07-20T08:13:14;101463.59;;;23.60;100.00
9784;BME280;4931;44.874;-1.092;2023-07-20T08:15:41;101454.72;;;23.70;100.00
9784;BME280;4931;44.874;-1.092;2023-07-20T08:18:07;101458.19;;;23.80;100.00
9784;BME280;4931;44.874;-1.092;2023-07-20T08:20:33;101461.44;;;23.82;100.00
9784;BME280;4931;44.874;-1.092;2023-07-20T08:23:01;101456.75;;;23.86;100.00
9784;BME280;4931;44.874;-1.092;2023-07-20T08:25:26;101458.19;;;23.80;100.00
9784;BME280;4931;44.874;-1.092;2023-07-20T08:27:52;101461.59;;;23.73;100.00
9784;BME280;4931;44.874;-1.092;2023-07-20T08:30:20;101453.06;;;23.69;100.00
9784;BME280;4931;44.874;-1.092;2023-07-20T08:32:46;101454.19;;;23.81;100.00
9784;BME280;4931;44.874;-1.092;2023-07-20T08:35:11;101452.75;;;24.12;100.00
9784;BME280;4931;44.874;-1.092;2023-07-20T08:37:37;101452.13;;;24.18;100.00
9784;BME280;4931;44.874;-1.092;2023-07-20T08:40:02;101446.53;;;24.18;100.00
9784;BME280;4931;44.874;-1.092;2023-07-20T08:42:31;101443.28;;;24.16;100.00
9784;BME280;4931;44.874;-1.092;2023-07-20T08:44:57;101439.78;;;24.35;100.00
9784;BME280;4931;44.874;-1.092;2023-07-20T08:47:24;101433.72;;;24.78;100.00
9784;BME280;4931;44.874;-1.092;2023-07-20T08:49:51;101436.81;;;25.05;100.00
9784;BME280;4931;44.874;-1.092;2023-07-20T08:52:17;101442.75;;;24.87;100.00
9784;BME280;4931;44.874;-1.092;2023-07-20T08:54:43;101434.34;;;24.71;100.00
9784;BME280;4931;44.874;-1.092;2023-07-20T08:57:10;101439.78;;;24.35;100.00
9784;BME280;4931;44.874;-1.092;2023-07-20T08:59:39;101441.50;;;24.68;100.00
9784;BME280;4931;44.874;-1.092;2023-07-20T09:02:04;101439.06;;;24.39;100.00
9784;BME280;4931;44.874;-1.092;2023-07-20T09:04:30;101445.88;;;24.53;100.00
9784;BME280;4931;44.874;-1.092;2023-07-20T09:06:57;101441.88;;;24.83;100.00
9784;BME280;4931;44.874;-1.092;2023-07-20T09:09:22;101434.34;;;24.71;100.00
9784;BME280;4931;44.874;-1.092;2023-07-20T09:11:49;101443.09;;;25.17;100.00
9784;BME280;4931;44.874;-1.092;2023-07-20T09:14:15;101435.19;;;24.43;100.00
9784;BME280;4931;44.874;-1.092;2023-07-20T09:16:48;101433.41;;;24.51;100.00
9784;BME280;4931;44.874;-1.092;2023-07-20T09:19:17;101430.84;;;24.90;100.00
9784;BME280;4931;44.874;-1.092;2023-07-20T09:21:47;101421.06;;;24.84;100.00
9784;BME280;4931;44.874;-1.092;2023-07-20T09:24:13;101429.59;;;24.43;100.00
9784;BME280;4931;44.874;-1.092;2023-07-20T09:26:44;101417.72;;;24.34;100.00
9784;BME280;4931;44.874;-1.092;2023-07-20T09:29:09;101422.47;;;24.17;100.00
9784;BME280;4931;44.874;-1.092;2023-07-20T09:31:35;101418.50;;;25.11;100.00
9784;BME280;4931;44.874;-1.092;2023-07-20T09:34:01;101409.94;;;25.75;100.00
9784;BME280;4931;44.874;-1.092;2023-07-20T09:36:27;101410.66;;;26.07;100.00
9784;BME280;4931;44.874;-1.092;2023-07-20T09:38:53;101412.91;;;26.21;100.00
9784;BME280;4931;44.874;-1.092;2023-07-20T09:41:20;101409.41;;;26.28;100.00
9784;BME280;4931;44.874;-1.092;2023-07-20T09:43:46;101412.31;;;25.92;100.00
9784;BME280;4931;44.874;-1.092;2023-07-20T09:46:11;101400.44;;;26.42;100.00
9784;BME280;4931;44.874;-1.092;2023-07-20T09:48:37;101404.63;;;26.28;100.00
9784;BME280;4931;44.874;-1.092;2023-07-20T09:51:03;101416.47;;;26.18;100.00
9784;BME280;4931;44.874;-1.092;2023-07-20T09:53:32;101405.03;;;26.30;100.00
9784;BME280;4931;44.874;-1.092;2023-07-20T09:55:58;101396.66;;;25.91;100.00
9784;BME280;4931;44.874;-1.092;2023-07-20T09:58:25;101405.66;;;25.61;100.00
9784;BME280;4931;44.874;-1.092;2023-07-20T10:00:51;101395.16;;;25.78;100.00
9784;BME280;4931;44.874;-1.092;2023-07-20T10:03:28;101402.28;;;26.11;100.00
9784;BME280;4931;44.874;-1.092;2023-07-20T10:05:56;101401.22;;;25.99;100.00
9784;BME280;4931;44.874;-1.092;2023-07-20T10:08:25;101388.66;;;26.13;100.00
9784;BME280;4931;44.874;-1.092;2023-07-20T10:10:50;101388.59;;;26.09;100.00
9784;BME280;4931;44.874;-1.092;2023-07-20T10:13:24;101398.72;;;26.14;100.00
9784;BME280;4931;44.874;-1.092;2023-07-20T10:15:54;101384.09;;;26.05;100.00
9784;BME280;4931;44.874;-1.092;2023-07-20T10:18:46;101385.25;;;26.23;100.00
9784;BME280;4931;44.874;-1.092;2023-07-20T10:21:17;101382.69;;;26.38;100.00
9784;BME280;4931;44.874;-1.092;2023-07-20T10:23:42;101390.22;;;26.10;100.00
9784;BME280;4931;44.874;-1.092;2023-07-20T10:26:09;101385.25;;;25.84;100.00
9784;BME280;4931;44.874;-1.092;2023-07-20T10:28:36;101383.31;;;25.88;100.00
9784;BME280;4931;44.874;-1.092;2023-07-20T10:31:02;101383.31;;;25.88;100.00
9784;BME280;4931;44.874;-1.092;2023-07-20T10:33:27;101388.31;;;26.38;100.00
9784;BME280;4931;44.874;-1.092;2023-07-20T10:35:55;101382.88;;;26.25;100.00
9784;BME280;4931;44.874;-1.092;2023-07-20T10:38:43;101368.63;;;26.38;100.00
9784;BME280;4931;44.874;-1.092;2023-07-20T10:41:18;101373.59;;;26.67;100.00
9784;BME280;4931;44.874;-1.092;2023-07-20T10:43:44;101369.72;;;26.76;100.00
9784;BME280;4931;44.874;-1.092;2023-07-20T10:46:11;101379.56;;;26.89;100.00
9784;BME280;4931;44.874;-1.092;2023-07-20T10:49:04;101375.31;;;26.29;100.00
9784;BME280;4931;44.874;-1.092;2023-07-20T10:51:30;101372.22;;;26.34;100.00
9784;BME280;4931;44.874;-1.092;2023-07-20T10:53:56;101367.63;;;26.26;100.00
9784;BME280;4931;44.874;-1.092;2023-07-20T10:56:26;101370.16;;;25.92;100.00
9784;BME280;4931;44.874;-1.092;2023-07-20T10:59:00;101370.81;;;25.85;100.00
9784;BME280;4931;44.874;-1.092;2023-07-20T11:01:30;101362.78;;;25.64;100.00
9784;BME280;4931;44.874;-1.092;2023-07-20T11:03:59;101367.81;;;25.75;100.00
9784;BME280;4931;44.874;-1.092;2023-07-20T11:11:33;101356.63;;;26.64;100.00
9784;BME280;4931;44.874;-1.092;2023-07-20T11:14:01;101354.69;;;26.91;100.00
9784;BME280;4931;44.874;-1.092;2023-07-20T11:16:37;101356.25;;;26.89;100.00
9784;BME280;4931;44.874;-1.092;2023-07-20T11:19:04;101344.97;;;26.39;100.00
9784;BME280;4931;44.874;-1.092;2023-07-20T11:21:36;101354.31;;;26.23;100.00
9784;BME280;4931;44.874;-1.092;2023-07-20T11:24:05;101355.00;;;26.16;100.00
9784;BME280;4931;44.874;-1.092;2023-07-20T11:26:40;101353.44;;;26.19;100.00
9784;BME280;4931;44.874;-1.092;2023-07-20T11:29:05;101348.63;;;26.00;100.00
9784;BME280;4931;44.874;-1.092;2023-07-20T11:31:35;101353.75;;;25.75;100.00
9784;BME280;4931;44.874;-1.092;2023-07-20T11:34:00;101359.97;;;25.84;100.00
9784;BME280;4931;44.874;-1.092;2023-07-20T11:36:26;101338.38;;;25.88;100.00
9784;BME280;4931;44.874;-1.092;2023-07-20T11:38:51;101336.50;;;26.15;100.00
9784;BME280;4931;44.874;-1.092;2023-07-20T11:41:17;101341.53;;;26.49;100.00
9784;BME280;4931;44.874;-1.092;2023-07-20T11:43:45;101341.25;;;26.58;100.00
9784;BME280;4931;44.874;-1.092;2023-07-20T11:46:11;101329.47;;;26.72;100.00
9784;BME280;4931;44.874;-1.092;2023-07-20T11:48:36;101327.75;;;27.21;100.00
9784;BME280;4931;44.874;-1.092;2023-07-20T11:51:02;101322.91;;;27.17;100.00
9784;BME280;4931;44.874;-1.092;2023-07-20T11:53:28;101326.88;;;27.74;100.00
9784;BME280;4931;44.874;-1.092;2023-07-20T11:55:54;101317.53;;;27.70;100.00
9784;BME280;4931;44.874;-1.092;2023-07-20T11:58:20;101333.00;;;28.17;100.00
9784;BME280;4931;44.874;-1.092;2023-07-20T12:00:47;101327.66;;;28.53;100.00
9784;BME280;4931;44.874;-1.092;2023-07-20T12:03:13;101325.50;;;28.80;100.00
9784;BME280;4931;44.874;-1.092;2023-07-20T12:05:39;101319.44;;;28.82;100.00
9784;BME280;4931;44.874;-1.092;2023-07-20T12:08:05;101318.66;;;28.85;100.00
9784;BME280;4931;44.874;-1.092;2023-07-20T12:10:30;101311.06;;;28.96;100.00
9784;BME280;4931;44.874;-1.092;2023-07-20T12:13:02;101317.81;;;28.81;100.00
9784;BME280;4931;44.874;-1.092;2023-07-20T12:15:32;101317.34;;;28.72;100.00
9784;BME280;4931;44.874;-1.092;2023-07-20T12:17:59;101307.13;;;28.56;100.00
9784;BME280;4931;44.874;-1.092;2023-07-20T12:22:51;101320.47;;;28.59;100.00
9784;BME280;4931;44.874;-1.092;2023-07-20T12:25:16;101316.47;;;28.60;100.00
9784;BME280;4931;44.874;-1.092;2023-07-20T12:27:44;101321.31;;;28.63;100.00
9784;BME280;4931;44.874;-1.092;2023-07-20T12:30:10;101308.94;;;28.30;100.00
9784;BME280;4931;44.874;-1.092;2023-07-20T12:32:35;101308.94;;;28.30;100.00
9784;BME280;4931;44.874;-1.092;2023-07-20T12:35:01;101312.75;;;28.08;100.00
9784;BME280;4931;44.874;-1.092;2023-07-20T12:37:26;101304.81;;;28.17;100.00
9784;BME280;4931;44.874;-1.092;2023-07-20T12:39:52;101312.88;;;28.22;100.00
9784;BME280;4931;44.874;-1.092;2023-07-20T12:42:18;101299.59;;;27.85;100.00
9784;BME280;4931;44.874;-1.092;2023-07-20T12:44:43;101303.69;;;27.91;100.00
9784;BME280;4931;44.874;-1.092;2023-07-20T12:47:09;101299.66;;;27.55;100.00
9784;BME280;4931;44.874;-1.092;2023-07-20T12:49:34;101307.56;;;27.42;100.00
9784;BME280;4931;44.874;-1.092;2023-07-20T12:52:00;101301.69;;;27.54;100.00
9784;BME280;4931;44.874;-1.092;2023-07-20T12:54:25;101307.13;;;27.40;100.00
9784;BME280;4931;44.874;-1.092;2023-07-20T12:56:51;101303.59;;;27.16;100.00
9784;BME280;4931;44.874;-1.092;2023-07-20T12:59:16;101301.06;;;26.80;100.00
9784;BME280;4931;44.874;-1.092;2023-07-20T13:01:42;101309.19;;;26.62;100.00
9784;BME280;4931;44.874;-1.092;2023-07-20T13:04:09;101303.81;;;26.77;100.00